sensor_id;sensor_type;location;lat;lon;timestamp;temperature;humidity
4054;DHT22;2042;47.956;9.222;2023-02-28T00:00:31;-3.00;1.00
4054;DHT22;2042;47.956;9.222;2023-02-28T00:02:57;-3.00;1.00
4054;DHT22;2042;47.956;9.222;2023-02-28T00:05:25;-3.00;1.00
4054;DHT22;2042;47.956;9.222;2023-02-28T00:07:51;-3.00;1.00
4054;DHT22;2042;47.956;9.222;2023-02-28T00:10:19;-3.00;1.00
4054;DHT22;2042;47.956;9.222;2023-02-28T00:12:50;-3.00;1.00
4054;DHT22;2042;47.956;9.222;2023-02-28T00:15:16;-3.00;1.00
4054;DHT22;2042;47.956;9.222;2023-02-28T00:17:42;-3.00;1.00
4054;DHT22;2042;47.956;9.222;2023-02-28T00:20:09;-3.00;1.00
4054;DHT22;2042;47.956;9.222;2023-02-28T00:22:42;-3.00;1.00
4054;DHT22;2042;47.956;9.222;2023-02-28T00:25:10;-3.00;1.00
4054;DHT22;2042;47.956;9.222;2023-02-28T00:27:38;-3.00;1.00
4054;DHT22;2042;47.956;9.222;2023-02-28T00:30:08;-3.10;1.00
4054;DHT22;2042;47.956;9.222;2023-02-28T00:32:34;-3.00;1.00
4054;DHT22;2042;47.956;9.222;2023-02-28T00:35:00;-3.10;1.00
4054;DHT22;2042;47.956;9.222;2023-02-28T00:37:27;-3.10;1.00
4054;DHT22;2042;47.956;9.222;2023-02-28T00:39:52;-3.10;1.00
4054;DHT22;2042;47.956;9.222;2023-02-28T00:42:18;-3.10;1.00
4054;DHT22;2042;47.956;9.222;2023-02-28T00:44:44;-3.10;1.00
4054;DHT22;2042;47.956;9.222;2023-02-28T00:47:09;-3.10;1.00
4054;DHT22;2042;47.956;9.222;2023-02-28T00:49:35;-3.10;1.00
4054;DHT22;2042;47.956;9.222;2023-02-28T00:52:01;-3.10;1.00
4054;DHT22;2042;47.956;9.222;2023-02-28T00:54:27;-3.20;1.00
4054;DHT22;2042;47.956;9.222;2023-02-28T00:56:52;-3.10;1.00
4054;DHT22;2042;47.956;9.222;2023-02-28T00:59:18;-3.20;1.00
4054;DHT22;2042;47.956;9.222;2023-02-28T01:01:45;-3.20;1.00
4054;DHT22;2042;47.956;9.222;2023-02-28T01:04:12;-3.10;1.00
4054;DHT22;2042;47.956;9.222;2023-02-28T01:06:38;-3.20;1.00
4054;DHT22;2042;47.956;9.222;2023-02-28T01:09:05;-3.20;1.00
4054;DHT22;2042;47.956;9.222;2023-02-28T01:11:31;-3.20;1.00
4054;DHT22;2042;47.956;9.222;2023-02-28T01:13:57;-3.20;1.00
4054;DHT22;2042;47.956;9.222;2023-02-28T01:16:22;-3.20;1.00
4054;DHT22;2042;47.956;9.222;2023-02-28T01:18:48;-3.20;1.00
4054;DHT22;2042;47.956;9.222;2023-02-28T01:21:16;-3.20;1.00
4054;DHT22;2042;47.956;9.222;2023-02-28T01:23:42;-3.20;1.00
4054;DHT22;2042;47.956;9.222;2023-02-28T01:26:19;-3.20;1.00
4054;DHT22;2042;47.956;9.222;2023-02-28T01:28:46;-3.20;1.00
4054;DHT22;2042;47.956;9.222;2023-02-28T01:31:12;-3.20;1.00
4054;DHT22;2042;47.956;9.222;2023-02-28T01:33:38;-3.20;1.00
4054;DHT22;2042;47.956;9.222;2023-02-28T01:36:08;-3.20;1.00
4054;DHT22;2042;47.956;9.222;2023-02-28T01:38:35;-3.20;1.00
4054;DHT22;2042;47.956;9.222;2023-02-28T01:41:01;-3.20;1.00
4054;DHT22;2042;47.956;9.222;2023-02-28T01:43:28;-3.20;1.00
4054;DHT22;2042;47.956;9.222;2023-02-28T01:45:56;-3.20;1.00
4054;DHT22;2042;47.956;9.222;2023-02-28T01:48:25;-3.20;1.00
4054;DHT22;2042;47.956;9.222;2023-02-28T01:50:52;-3.20;1.00
4054;DHT22;2042;47.956;9.222;2023-02-28T01:53:24;-3.20;1.00
4054;DHT22;2042;47.956;9.222;2023-02-28T01:55:52;-3.20;1.00
4054;DHT22;2042;47.956;9.222;2023-02-28T01:58:19;-3.20;1.00
4054;DHT22;2042;47.956;9.222;2023-02-28T02:00:45;-3.20;1.00
4054;DHT22;2042;47.956;9.222;2023-02-28T02:03:16;-3.20;1.00
4054;DHT22;2042;47.956;9.222;2023-02-28T02:05:44;-3.20;1.00
4054;DHT22;2042;47.956;9.222;2023-02-28T02:08:24;-3.20;1.00
4054;DHT22;2042;47.956;9.222;2023-02-28T02:11:01;-3.20;1.00
4054;DHT22;2042;47.956;9.222;2023-02-28T02:16:38;-3.30;1.00
4054;DHT22;2042;47.956;9.222;2023-02-28T02:19:46;-3.30;1.00
4054;DHT22;2042;47.956;9.222;2023-02-28T02:35:56;-3.30;1.00
4054;DHT22;2042;47.956;9.222;2023-02-28T02:43:47;-3.20;1.00
4054;DHT22;2042;47.956;9.222;2023-02-28T02:46:34;-3.30;1.00
4054;DHT22;2042;47.956;9.222;2023-02-28T02:49:06;-3.20;1.00
4054;DHT22;2042;47.956;9.222;2023-02-28T02:51:34;-3.20;1.00
4054;DHT22;2042;47.956;9.222;2023-02-28T02:54:47;-3.20;1.00
4054;DHT22;2042;47.956;9.222;2023-02-28T02:57:14;-3.20;1.00
4054;DHT22;2042;47.956;9.222;2023-02-28T02:59:41;-3.20;1.00
4054;DHT22;2042;47.956;9.222;2023-02-28T03:02:11;-3.20;1.00
4054;DHT22;2042;47.956;9.222;2023-02-28T03:04:45;-3.20;1.00
4054;DHT22;2042;47.956;9.222;2023-02-28T03:07:12;-3.20;1.00
4054;DHT22;2042;47.956;9.222;2023-02-28T03:09:37;-3.20;1.00
4054;DHT22;2042;47.956;9.222;2023-02-28T03:12:08;-3.20;1.00
4054;DHT22;2042;47.956;9.222;2023-02-28T03:17:16;-3.20;1.00
4054;DHT22;2042;47.956;9.222;2023-02-28T03:28:06;-3.20;1.00
4054;DHT22;2042;47.956;9.222;2023-02-28T03:33:24;-3.20;1.00
4054;DHT22;2042;47.956;9.222;2023-02-28T03:36:18;-3.20;1.00
4054;DHT22;2042;47.956;9.222;2023-02-28T03:38:54;-3.30;1.00
4054;DHT22;2042;47.956;9.222;2023-02-28T03:41:44;-3.30;1.00
4054;DHT22;2042;47.956;9.222;2023-02-28T03:44:29;-3.20;1.00
4054;DHT22;2042;47.956;9.222;2023-02-28T03:47:21;-3.20;1.00
4054;DHT22;2042;47.956;9.222;2023-02-28T03:49:56;-3.30;1.00
4054;DHT22;2042;47.956;9.222;2023-02-28T03:52:25;-3.30;1.00
4054;DHT22;2042;47.956;9.222;2023-02-28T03:54:55;-3.30;1.00
4054;DHT22;2042;47.956;9.222;2023-02-28T03:57:27;-3.30;1.00
4054;DHT22;2042;47.956;9.222;2023-02-28T03:59:59;-3.30;1.00
4054;DHT22;2042;47.956;9.222;2023-02-28T04:02:27;-3.30;1.00
4054;DHT22;2042;47.956;9.222;2023-02-28T04:04:53;-3.30;1.00
4054;DHT22;2042;47.956;9.222;2023-02-28T04:07:19;-3.20;1.00
4054;DHT22;2042;47.956;9.222;2023-02-28T04:09:45;-3.20;1.00
4054;DHT22;2042;47.956;9.222;2023-02-28T04:12:10;-3.20;1.00
4054;DHT22;2042;47.956;9.222;2023-02-28T04:14:36;-3.20;1.00
4054;DHT22;2042;47.956;9.222;2023-02-28T04:17:02;-3.20;1.00
4054;DHT22;2042;47.956;9.222;2023-02-28T04:19:27;-3.20;1.00
4054;DHT22;2042;47.956;9.222;2023-02-28T04:21:53;-3.20;1.00
4054;DHT22;2042;47.956;9.222;2023-02-28T04:24:25;-3.30;1.00
4054;DHT22;2042;47.956;9.222;2023-02-28T04:26:53;-3.20;1.00
4054;DHT22;2042;47.956;9.222;2023-02-28T04:29:30;-3.20;1.00
4054;DHT22;2042;47.956;9.222;2023-02-28T04:31:58;-3.20;1.00
4054;DHT22;2042;47.956;9.222;2023-02-28T04:34:25;-3.20;1.00
4054;DHT22;2042;47.956;9.222;2023-02-28T04:36:53;-3.20;1.00
4054;DHT22;2042;47.956;9.222;2023-02-28T04:39:21;-3.20;1.00
4054;DHT22;2042;47.956;9.222;2023-02-28T04:41:47;-3.20;1.00
4054;DHT22;2042;47.956;9.222;2023-02-28T04:44:13;-3.20;1.00
4054;DHT22;2042;47.956;9.222;2023-02-28T04:46:38;-3.20;1.00
4054;DHT22;2042;47.956;9.222;2023-02-28T04:49:04;-3.20;1.00
4054;DHT22;2042;47.956;9.222;2023-02-28T04:51:30;-3.20;1.00
4054;DHT22;2042;47.956;9.222;2023-02-28T04:53:56;-3.20;1.00
4054;DHT22;2042;47.956;9.222;2023-02-28T04:56:21;-3.20;1.00
4054;DHT22;2042;47.956;9.222;2023-02-28T04:58:48;-3.20;1.00
4054;DHT22;2042;47.956;9.222;2023-02-28T05:01:29;-3.20;1.00
4054;DHT22;2042;47.956;9.222;2023-02-28T05:03:56;-3.20;1.00
4054;DHT22;2042;47.956;9.222;2023-02-28T05:06:24;-3.20;1.00
4054;DHT22;2042;47.956;9.222;2023-02-28T05:08:51;-3.20;1.00
4054;DHT22;2042;47.956;9.222;2023-02-28T05:11:32;-3.20;1.00
4054;DHT22;2042;47.956;9.222;2023-02-28T05:14:06;-3.20;1.00
4054;DHT22;2042;47.956;9.222;2023-02-28T05:16:32;-3.20;1.00
4054;DHT22;2042;47.956;9.222;2023-02-28T05:18:58;-3.20;1.00
4054;DHT22;2042;47.956;9.222;2023-02-28T05:21:30;-3.20;1.00
4054;DHT22;2042;47.956;9.222;2023-02-28T05:24:00;-3.20;1.00
4054;DHT22;2042;47.956;9.222;2023-02-28T05:26:26;-3.20;1.00
4054;DHT22;2042;47.956;9.222;2023-02-28T05:28:53;-3.20;1.00
4054;DHT22;2042;47.956;9.222;2023-02-28T05:31:20;-3.20;1.00
4054;DHT22;2042;47.956;9.222;2023-02-28T05:33:46;-3.20;1.00
4054;DHT22;2042;47.956;9.222;2023-02-28T05:36:13;-3.20;1.00
4054;DHT22;2042;47.956;9.222;2023-02-28T05:38:38;-3.20;1.00
4054;DHT22;2042;47.956;9.222;2023-02-28T05:41:08;-3.20;1.00
4054;DHT22;2042;47.956;9.222;2023-02-28T05:43:34;-3.20;1.00
4054;DHT22;2042;47.956;9.222;2023-02-28T05:46:05;-3.20;1.00
4054;DHT22;2042;47.956;9.222;2023-02-28T05:48:32;-3.20;1.00
4054;DHT22;2042;47.956;9.222;2023-02-28T05:50:58;-3.20;1.00
4054;DHT22;2042;47.956;9.222;2023-02-28T05:53:24;-3.20;1.00
4054;DHT22;2042;47.956;9.222;2023-02-28T05:55:50;-3.20;1.00
4054;DHT22;2042;47.956;9.222;2023-02-28T05:58:15;-3.10;1.00
4054;DHT22;2042;47.956;9.222;2023-02-28T06:00:41;-3.10;1.00
4054;DHT22;2042;47.956;9.222;2023-02-28T06:03:07;-3.10;1.00
4054;DHT22;2042;47.956;9.222;2023-02-28T06:05:32;-3.10;1.00
4054;DHT22;2042;47.956;9.222;2023-02-28T06:07:58;-3.10;1.00
4054;DHT22;2042;47.956;9.222;2023-02-28T06:10:24;-3.10;1.00
4054;DHT22;2042;47.956;9.222;2023-02-28T06:12:49;-3.10;1.00
4054;DHT22;2042;47.956;9.222;2023-02-28T06:15:16;-3.10;1.00
4054;DHT22;2042;47.956;9.222;2023-02-28T06:17:43;-3.10;1.00
4054;DHT22;2042;47.956;9.222;2023-02-28T06:20:10;-3.10;1.00
4054;DHT22;2042;47.956;9.222;2023-02-28T06:22:38;-3.10;1.00
4054;DHT22;2042;47.956;9.222;2023-02-28T06:25:04;-3.00;1.00
4054;DHT22;2042;47.956;9.222;2023-02-28T06:27:31;-3.10;1.00
4054;DHT22;2042;47.956;9.222;2023-02-28T06:29:58;-3.10;1.00
4054;DHT22;2042;47.956;9.222;2023-02-28T06:32:24;-3.10;1.00
4054;DHT22;2042;47.956;9.222;2023-02-28T06:34:50;-3.10;1.00
4054;DHT22;2042;47.956;9.222;2023-02-28T06:37:17;-3.10;1.00
4054;DHT22;2042;47.956;9.222;2023-02-28T06:39:42;-3.00;1.00
4054;DHT22;2042;47.956;9.222;2023-02-28T06:42:08;-3.00;1.00
4054;DHT22;2042;47.956;9.222;2023-02-28T06:44:34;-3.00;1.00
4054;DHT22;2042;47.956;9.222;2023-02-28T06:47:05;-3.00;1.00
4054;DHT22;2042;47.956;9.222;2023-02-28T06:49:32;-3.00;1.00
4054;DHT22;2042;47.956;9.222;2023-02-28T06:51:59;-3.00;1.00
4054;DHT22;2042;47.956;9.222;2023-02-28T06:54:24;-2.90;1.00
4054;DHT22;2042;47.956;9.222;2023-02-28T06:56:50;-2.90;1.00
4054;DHT22;2042;47.956;9.222;2023-02-28T06:59:16;-2.90;1.00
4054;DHT22;2042;47.956;9.222;2023-02-28T07:01:43;-2.80;1.00
4054;DHT22;2042;47.956;9.222;2023-02-28T07:04:09;-2.80;1.00
4054;DHT22;2042;47.956;9.222;2023-02-28T07:06:34;-2.70;1.00
4054;DHT22;2042;47.956;9.222;2023-02-28T07:09:00;-2.70;1.00
4054;DHT22;2042;47.956;9.222;2023-02-28T07:11:27;-2.70;1.00
4054;DHT22;2042;47.956;9.222;2023-02-28T07:13:55;-2.70;1.00
4054;DHT22;2042;47.956;9.222;2023-02-28T07:16:21;-2.70;1.00
4054;DHT22;2042;47.956;9.222;2023-02-28T07:18:48;-2.60;1.00
4054;DHT22;2042;47.956;9.222;2023-02-28T07:21:14;-2.60;1.00
4054;DHT22;2042;47.956;9.222;2023-02-28T07:23:40;-2.60;1.00
4054;DHT22;2042;47.956;9.222;2023-02-28T07:26:11;-2.60;1.00
4054;DHT22;2042;47.956;9.222;2023-02-28T07:28:41;-2.50;1.00
4054;DHT22;2042;47.956;9.222;2023-02-28T07:31:08;-2.50;1.00
4054;DHT22;2042;47.956;9.222;2023-02-28T07:33:35;-2.50;1.00
4054;DHT22;2042;47.956;9.222;2023-02-28T07:36:09;-2.50;1.00
4054;DHT22;2042;47.956;9.222;2023-02-28T07:38:39;-2.40;1.00
4054;DHT22;2042;47.956;9.222;2023-02-28T07:41:04;-2.40;1.00
4054;DHT22;2042;47.956;9.222;2023-02-28T07:43:31;-2.40;1.00
4054;DHT22;2042;47.956;9.222;2023-02-28T07:46:05;-2.40;1.00
4054;DHT22;2042;47.956;9.222;2023-02-28T07:48:31;-2.40;1.00
4054;DHT22;2042;47.956;9.222;2023-02-28T07:50:57;-2.30;1.00
4054;DHT22;2042;47.956;9.222;2023-02-28T07:53:24;-2.30;1.00
4054;DHT22;2042;47.956;9.222;2023-02-28T07:55:49;-2.20;1.00
4054;DHT22;2042;47.956;9.222;2023-02-28T07:58:15;-2.20;1.00
4054;DHT22;2042;47.956;9.222;2023-02-28T08:00:40;-2.10;1.00
4054;DHT22;2042;47.956;9.222;2023-02-28T08:03:07;-2.10;1.00
4054;DHT22;2042;47.956;9.222;2023-02-28T08:05:38;-2.20;1.00
4054;DHT22;2042;47.956;9.222;2023-02-28T08:08:04;-2.10;1.00
4054;DHT22;2042;47.956;9.222;2023-02-28T08:10:30;-2.10;1.00
4054;DHT22;2042;47.956;9.222;2023-02-28T08:12:55;-2.20;1.00
4054;DHT22;2042;47.956;9.222;2023-02-28T08:15:21;-2.10;1.00
4054;DHT22;2042;47.956;9.222;2023-02-28T08:17:46;-2.10;1.00
4054;DHT22;2042;47.956;9.222;2023-02-28T08:20:12;-2.00;1.00
4054;DHT22;2042;47.956;9.222;2023-02-28T08:22:38;-1.80;1.00
4054;DHT22;2042;47.956;9.222;2023-02-28T08:25:04;-1.80;1.00
4054;DHT22;2042;47.956;9.222;2023-02-28T08:27:32;-1.60;1.00
4054;DHT22;2042;47.956;9.222;2023-02-28T08:29:58;-1.50;1.00
4054;DHT22;2042;47.956;9.222;2023-02-28T08:32:24;-1.40;1.00
4054;DHT22;2042;47.956;9.222;2023-02-28T08:34:49;-1.30;1.00
4054;DHT22;2042;47.956;9.222;2023-02-28T08:37:16;-1.30;1.00
4054;DHT22;2042;47.956;9.222;2023-02-28T08:39:42;-1.30;1.00
4054;DHT22;2042;47.956;9.222;2023-02-28T08:42:07;-1.30;1.00
4054;DHT22;2042;47.956;9.222;2023-02-28T08:44:33;-1.30;1.00
4054;DHT22;2042;47.956;9.222;2023-02-28T08:47:01;-1.20;1.00
4054;DHT22;2042;47.956;9.222;2023-02-28T08:49:27;-1.20;1.00
4054;DHT22;2042;47.956;9.222;2023-02-28T08:51:52;-1.10;1.00
4054;DHT22;2042;47.956;9.222;2023-02-28T08:54:19;-1.00;1.00
4054;DHT22;2042;47.956;9.222;2023-02-28T08:56:47;-0.90;1.00
4054;DHT22;2042;47.956;9.222;2023-02-28T08:59:13;-1.00;1.00
4054;DHT22;2042;47.956;9.222;2023-02-28T09:01:40;-1.10;1.00
4054;DHT22;2042;47.956;9.222;2023-02-28T09:04:07;-1.20;1.00
4054;DHT22;2042;47.956;9.222;2023-02-28T09:06:34;-1.20;1.00
4054;DHT22;2042;47.956;9.222;2023-02-28T09:09:00;-1.10;1.00
4054;DHT22;2042;47.956;9.222;2023-02-28T09:11:27;-1.10;1.00
4054;DHT22;2042;47.956;9.222;2023-02-28T09:13:53;-1.10;1.00
4054;DHT22;2042;47.956;9.222;2023-02-28T09:16:21;-1.00;1.00
4054;DHT22;2042;47.956;9.222;2023-02-28T09:18:47;-0.90;1.00
4054;DHT22;2042;47.956;9.222;2023-02-28T09:21:15;-0.80;1.00
4054;DHT22;2042;47.956;9.222;2023-02-28T09:23:42;-0.80;1.00
4054;DHT22;2042;47.956;9.222;2023-02-28T09:26:17;-0.90;1.00
4054;DHT22;2042;47.956;9.222;2023-02-28T09:28:44;-1.00;1.00
4054;DHT22;2042;47.956;9.222;2023-02-28T09:31:25;-0.90;1.00
4054;DHT22;2042;47.956;9.222;2023-02-28T09:33:53;-1.00;1.00
4054;DHT22;2042;47.956;9.222;2023-02-28T09:36:22;-1.00;1.00
4054;DHT22;2042;47.956;9.222;2023-02-28T09:38:49;-0.90;1.00
4054;DHT22;2042;47.956;9.222;2023-02-28T09:41:22;-0.80;1.00
4054;DHT22;2042;47.956;9.222;2023-02-28T09:44:00;-0.80;1.00
4054;DHT22;2042;47.956;9.222;2023-02-28T09:46:35;-0.60;1.00
4054;DHT22;2042;47.956;9.222;2023-02-28T09:49:12;-0.70;1.00
4054;DHT22;2042;47.956;9.222;2023-02-28T09:52:27;-0.80;1.00
4054;DHT22;2042;47.956;9.222;2023-02-28T09:54:45;-0.70;1.00
4054;DHT22;2042;47.956;9.222;2023-02-28T10:10:42;-0.30;1.00
4054;DHT22;2042;47.956;9.222;2023-02-28T10:15:48;0.20;1.00
4054;DHT22;2042;47.956;9.222;2023-02-28T10:18:20;0.20;1.00
4054;DHT22;2042;47.956;9.222;2023-02-28T10:20:47;0.20;1.00
4054;DHT22;2042;47.956;9.222;2023-02-28T10:23:21;0.10;1.00
4054;DHT22;2042;47.956;9.222;2023-02-28T10:25:57;0.00;1.00
4054;DHT22;2042;47.956;9.222;2023-02-28T10:28:25;-0.20;1.00
4054;DHT22;2042;47.956;9.222;2023-02-28T10:30:53;-0.20;1.00
4054;DHT22;2042;47.956;9.222;2023-02-28T10:33:33;-0.10;1.00
4054;DHT22;2042;47.956;9.222;2023-02-28T10:36:03;-0.10;1.00
4054;DHT22;2042;47.956;9.222;2023-02-28T10:38:37;0.00;1.00
4054;DHT22;2042;47.956;9.222;2023-02-28T10:41:11;0.00;1.00
4054;DHT22;2042;47.956;9.222;2023-02-28T10:43:40;0.20;1.00
4054;DHT22;2042;47.956;9.222;2023-02-28T10:48:41;0.40;1.00
4054;DHT22;2042;47.956;9.222;2023-02-28T10:51:15;0.50;1.00
4054;DHT22;2042;47.956;9.222;2023-02-28T10:59:03;0.50;1.00
4054;DHT22;2042;47.956;9.222;2023-02-28T11:01:47;0.60;1.00
4054;DHT22;2042;47.956;9.222;2023-02-28T11:07:00;0.60;1.00
4054;DHT22;2042;47.956;9.222;2023-02-28T11:11:57;0.60;1.00
4054;DHT22;2042;47.956;9.222;2023-02-28T11:14:28;0.70;1.00
4054;DHT22;2042;47.956;9.222;2023-02-28T11:17:03;0.80;1.00
4054;DHT22;2042;47.956;9.222;2023-02-28T11:19:41;0.80;1.00
4054;DHT22;2042;47.956;9.222;2023-02-28T11:22:09;0.90;1.00
4054;DHT22;2042;47.956;9.222;2023-02-28T11:24:47;0.90;1.00
4054;DHT22;2042;47.956;9.222;2023-02-28T11:28:03;0.90;1.00
4054;DHT22;2042;47.956;9.222;2023-02-28T11:30:37;0.90;1.00
4054;DHT22;2042;47.956;9.222;2023-02-28T11:33:43;0.90;1.00
4054;DHT22;2042;47.956;9.222;2023-02-28T11:38:42;0.60;1.00
4054;DHT22;2042;47.956;9.222;2023-02-28T11:41:30;0.60;1.00
4054;DHT22;2042;47.956;9.222;2023-02-28T11:44:22;0.60;1.00
4054;DHT22;2042;47.956;9.222;2023-02-28T11:46:58;0.70;1.00
4054;DHT22;2042;47.956;9.222;2023-02-28T12:00:35;1.10;1.00
4054;DHT22;2042;47.956;9.222;2023-02-28T12:03:33;1.00;1.00
4054;DHT22;2042;47.956;9.222;2023-02-28T12:22:24;1.00;1.00
4054;DHT22;2042;47.956;9.222;2023-02-28T12:27:40;0.90;1.00
4054;DHT22;2042;47.956;9.222;2023-02-28T12:30:26;0.90;1.00
4054;DHT22;2042;47.956;9.222;2023-02-28T12:33:07;0.90;1.00
4054;DHT22;2042;47.956;9.222;2023-02-28T12:35:38;1.20;1.00
4054;DHT22;2042;47.956;9.222;2023-02-28T12:38:14;1.30;1.00
4054;DHT22;2042;47.956;9.222;2023-02-28T12:41:00;1.40;1.00
4054;DHT22;2042;47.956;9.222;2023-02-28T12:43:33;1.40;1.00
4054;DHT22;2042;47.956;9.222;2023-02-28T12:48:53;1.00;1.00
4054;DHT22;2042;47.956;9.222;2023-02-28T12:51:24;1.10;1.00
4054;DHT22;2042;47.956;9.222;2023-02-28T12:54:12;1.20;1.00
4054;DHT22;2042;47.956;9.222;2023-02-28T12:56:44;1.30;1.00
4054;DHT22;2042;47.956;9.222;2023-02-28T12:59:21;1.20;1.00
4054;DHT22;2042;47.956;9.222;2023-02-28T13:05:00;1.50;1.00
4054;DHT22;2042;47.956;9.222;2023-02-28T13:10:08;1.50;1.00
4054;DHT22;2042;47.956;9.222;2023-02-28T13:12:35;1.60;1.00
4054;DHT22;2042;47.956;9.222;2023-02-28T13:17:51;1.50;1.00
4054;DHT22;2042;47.956;9.222;2023-02-28T13:20:34;1.50;1.00
4054;DHT22;2042;47.956;9.222;2023-02-28T13:23:02;1.40;1.00
4054;DHT22;2042;47.956;9.222;2023-02-28T13:28:02;1.60;1.00
4054;DHT22;2042;47.956;9.222;2023-02-28T17:49:06;-2.20;1.00
4054;DHT22;2042;47.956;9.222;2023-02-28T17:51:31;-2.40;1.00
4054;DHT22;2042;47.956;9.222;2023-02-28T17:53:57;-2.40;1.00
4054;DHT22;2042;47.956;9.222;2023-02-28T17:56:24;-2.40;1.00
4054;DHT22;2042;47.956;9.222;2023-02-28T17:58:52;-2.40;1.00
4054;DHT22;2042;47.956;9.222;2023-02-28T18:01:19;-2.40;1.00
4054;DHT22;2042;47.956;9.222;2023-02-28T18:03:46;-2.40;1.00
4054;DHT22;2042;47.956;9.222;2023-02-28T18:06:19;-2.50;1.00
4054;DHT22;2042;47.956;9.222;2023-02-28T18:08:47;-2.60;1.00
4054;DHT22;2042;47.956;9.222;2023-02-28T18:11:13;-2.70;1.00
4054;DHT22;2042;47.956;9.222;2023-02-28T18:13:52;-2.90;1.00
4054;DHT22;2042;47.956;9.222;2023-02-28T18:16:20;-3.00;1.00
4054;DHT22;2042;47.956;9.222;2023-02-28T18:18:49;-3.10;1.00
4054;DHT22;2042;47.956;9.222;2023-02-28T18:21:15;-3.20;1.00
4054;DHT22;2042;47.956;9.222;2023-02-28T18:23:43;-3.20;1.00
4054;DHT22;2042;47.956;9.222;2023-02-28T18:26:17;-3.30;1.00
4054;DHT22;2042;47.956;9.222;2023-02-28T18:28:44;-3.40;1.00
4054;DHT22;2042;47.956;9.222;2023-02-28T18:31:14;-3.30;1.00
4054;DHT22;2042;47.956;9.222;2023-02-28T18:33:59;-3.30;1.00
4054;DHT22;2042;47.956;9.222;2023-02-28T18:36:27;-3.30;1.00
4054;DHT22;2042;47.956;9.222;2023-02-28T18:38:53;-3.30;1.00
4054;DHT22;2042;47.956;9.222;2023-02-28T18:41:20;-3.30;1.00
4054;DHT22;2042;47.956;9.222;2023-02-28T18:43:47;-3.30;1.00
4054;DHT22;2042;47.956;9.222;2023-02-28T18:46:17;-3.40;1.00
4054;DHT22;2042;47.956;9.222;2023-02-28T18:48:43;-3.50;1.00
4054;DHT22;2042;47.956;9.222;2023-02-28T18:51:15;-3.60;1.00
4054;DHT22;2042;47.956;9.222;2023-02-28T18:53:42;-3.50;1.00
4054;DHT22;2042;47.956;9.222;2023-02-28T18:56:09;-3.50;1.00
4054;DHT22;2042;47.956;9.222;2023-02-28T18:58:35;-3.40;1.00
4054;DHT22;2042;47.956;9.222;2023-02-28T19:01:02;-3.40;1.00
4054;DHT22;2042;47.956;9.222;2023-02-28T19:03:29;-3.50;1.00
4054;DHT22;2042;47.956;9.222;2023-02-28T19:05:59;-3.50;1.00
4054;DHT22;2042;47.956;9.222;2023-02-28T19:08:25;-3.50;1.00
4054;DHT22;2042;47.956;9.222;2023-02-28T19:10:51;-3.50;1.00
4054;DHT22;2042;47.956;9.222;2023-02-28T19:13:17;-3.40;1.00
4054;DHT22;2042;47.956;9.222;2023-02-28T19:15:43;-3.30;1.00
4054;DHT22;2042;47.956;9.222;2023-02-28T19:18:08;-3.30;1.00
4054;DHT22;2042;47.956;9.222;2023-02-28T19:20:35;-3.30;1.00
4054;DHT22;2042;47.956;9.222;2023-02-28T19:23:00;-3.30;1.00
4054;DHT22;2042;47.956;9.222;2023-02-28T19:25:26;-3.30;1.00
4054;DHT22;2042;47.956;9.222;2023-02-28T19:27:53;-3.20;1.00
4054;DHT22;2042;47.956;9.222;2023-02-28T19:30:19;-3.20;1.00
4054;DHT22;2042;47.956;9.222;2023-02-28T19:32:48;-3.30;1.00
4054;DHT22;2042;47.956;9.222;2023-02-28T19:35:15;-3.30;1.00
4054;DHT22;2042;47.956;9.222;2023-02-28T19:37:40;-3.30;1.00
4054;DHT22;2042;47.956;9.222;2023-02-28T19:40:08;-3.20;1.00
4054;DHT22;2042;47.956;9.222;2023-02-28T19:42:34;-3.20;1.00
4054;DHT22;2042;47.956;9.222;2023-02-28T19:45:00;-3.20;1.00
4054;DHT22;2042;47.956;9.222;2023-02-28T19:47:26;-3.20;1.00
4054;DHT22;2042;47.956;9.222;2023-02-28T19:49:52;-3.20;1.00
4054;DHT22;2042;47.956;9.222;2023-02-28T19:52:23;-3.30;1.00
4054;DHT22;2042;47.956;9.222;2023-02-28T19:54:49;-3.30;1.00
4054;DHT22;2042;47.956;9.222;2023-02-28T19:57:15;-3.30;1.00
4054;DHT22;2042;47.956;9.222;2023-02-28T19:59:40;-3.30;1.00
4054;DHT22;2042;47.956;9.222;2023-02-28T20:02:14;-3.40;1.00
4054;DHT22;2042;47.956;9.222;2023-02-28T20:04:40;-3.30;1.00
4054;DHT22;2042;47.956;9.222;2023-02-28T20:07:06;-3.30;1.00
4054;DHT22;2042;47.956;9.222;2023-02-28T20:09:32;-3.40;1.00
4054;DHT22;2042;47.956;9.222;2023-02-28T20:11:58;-3.40;1.00
4054;DHT22;2042;47.956;9.222;2023-02-28T20:14:24;-3.40;1.00
4054;DHT22;2042;47.956;9.222;2023-02-28T20:16:51;-3.40;1.00
4054;DHT22;2042;47.956;9.222;2023-02-28T20:19:18;-3.50;1.00
4054;DHT22;2042;47.956;9.222;2023-02-28T20:21:44;-3.60;1.00
4054;DHT22;2042;47.956;9.222;2023-02-28T20:24:11;-3.50;1.00
4054;DHT22;2042;47.956;9.222;2023-02-28T20:26:38;-3.50;1.00
4054;DHT22;2042;47.956;9.222;2023-02-28T20:29:07;-3.50;1.00
4054;DHT22;2042;47.956;9.222;2023-02-28T20:31:34;-3.50;1.00
4054;DHT22;2042;47.956;9.222;2023-02-28T20:34:03;-3.50;1.00
4054;DHT22;2042;47.956;9.222;2023-02-28T20:36:30;-3.40;1.00
4054;DHT22;2042;47.956;9.222;2023-02-28T20:38:56;-3.40;1.00
4054;DHT22;2042;47.956;9.222;2023-02-28T20:41:22;-3.40;1.00
4054;DHT22;2042;47.956;9.222;2023-02-28T20:43:58;-3.40;1.00
4054;DHT22;2042;47.956;9.222;2023-02-28T20:46:24;-3.30;1.00
4054;DHT22;2042;47.956;9.222;2023-02-28T20:48:50;-3.40;1.00
4054;DHT22;2042;47.956;9.222;2023-02-28T20:51:16;-3.40;1.00
4054;DHT22;2042;47.956;9.222;2023-02-28T20:53:42;-3.40;1.00
4054;DHT22;2042;47.956;9.222;2023-02-28T20:56:12;-3.40;1.00
4054;DHT22;2042;47.956;9.222;2023-02-28T20:58:39;-3.40;1.00
4054;DHT22;2042;47.956;9.222;2023-02-28T21:01:10;-3.40;1.00
4054;DHT22;2042;47.956;9.222;2023-02-28T21:06:08;-3.50;1.00
4054;DHT22;2042;47.956;9.222;2023-02-28T21:08:35;-3.50;1.00
4054;DHT22;2042;47.956;9.222;2023-02-28T21:11:05;-3.50;1.00
4054;DHT22;2042;47.956;9.222;2023-02-28T21:13:31;-3.40;1.00
4054;DHT22;2042;47.956;9.222;2023-02-28T21:16:01;-3.40;1.00
4054;DHT22;2042;47.956;9.222;2023-02-28T21:18:27;-3.50;1.00
4054;DHT22;2042;47.956;9.222;2023-02-28T21:20:52;-3.40;1.00
4054;DHT22;2042;47.956;9.222;2023-02-28T21:23:18;-3.40;1.00
4054;DHT22;2042;47.956;9.222;2023-02-28T21:25:44;-3.40;1.00
4054;DHT22;2042;47.956;9.222;2023-02-28T21:28:09;-3.40;1.00
4054;DHT22;2042;47.956;9.222;2023-02-28T21:30:36;-3.40;1.00
4054;DHT22;2042;47.956;9.222;2023-02-28T21:33:02;-3.30;1.00
4054;DHT22;2042;47.956;9.222;2023-02-28T21:35:27;-3.30;1.00
4054;DHT22;2042;47.956;9.222;2023-02-28T21:37:53;-3.30;1.00
4054;DHT22;2042;47.956;9.222;2023-02-28T21:40:19;-3.40;1.00
4054;DHT22;2042;47.956;9.222;2023-02-28T21:42:44;-3.30;1.00
4054;DHT22;2042;47.956;9.222;2023-02-28T21:45:10;-3.20;1.00
4054;DHT22;2042;47.956;9.222;2023-02-28T21:47:36;-3.10;1.00
4054;DHT22;2042;47.956;9.222;2023-02-28T21:50:01;-3.10;1.00
4054;DHT22;2042;47.956;9.222;2023-02-28T21:52:27;-3.00;1.00
4054;DHT22;2042;47.956;9.222;2023-02-28T21:54:52;-3.10;1.00
4054;DHT22;2042;47.956;9.222;2023-02-28T21:57:18;-3.10;1.00
4054;DHT22;2042;47.956;9.222;2023-02-28T21:59:45;-3.10;1.00
4054;DHT22;2042;47.956;9.222;2023-02-28T22:02:11;-3.00;1.00
4054;DHT22;2042;47.956;9.222;2023-02-28T22:04:37;-3.00;1.00
4054;DHT22;2042;47.956;9.222;2023-02-28T22:07:03;-2.90;1.00
4054;DHT22;2042;47.956;9.222;2023-02-28T22:09:30;-2.80;1.00
4054;DHT22;2042;47.956;9.222;2023-02-28T22:11:56;-2.80;1.00
4054;DHT22;2042;47.956;9.222;2023-02-28T22:14:22;-2.70;1.00
4054;DHT22;2042;47.956;9.222;2023-02-28T22:16:48;-2.80;1.00
4054;DHT22;2042;47.956;9.222;2023-02-28T22:19:15;-2.70;1.00
4054;DHT22;2042;47.956;9.222;2023-02-28T22:21:41;-2.70;1.00
4054;DHT22;2042;47.956;9.222;2023-02-28T22:24:08;-2.70;1.00
4054;DHT22;2042;47.956;9.222;2023-02-28T22:26:35;-2.60;1.00
4054;DHT22;2042;47.956;9.222;2023-02-28T22:29:00;-2.60;1.00
4054;DHT22;2042;47.956;9.222;2023-02-28T22:31:29;-2.60;1.00
4054;DHT22;2042;47.956;9.222;2023-02-28T22:34:01;-2.60;1.00
4054;DHT22;2042;47.956;9.222;2023-02-28T22:36:28;-2.50;1.00
4054;DHT22;2042;47.956;9.222;2023-02-28T22:38:55;-2.50;1.00
4054;DHT22;2042;47.956;9.222;2023-02-28T22:41:22;-2.50;1.00
4054;DHT22;2042;47.956;9.222;2023-02-28T22:43:54;-2.40;1.00